sensor_id;sensor_type;location;lat;lon;timestamp;temperature;humidity
17421;DHT22;8828;48.800;9.540;2022-11-20T00:00:55;8.20;99.90
17421;DHT22;8828;48.800;9.540;2022-11-20T00:03:23;8.20;99.90
17421;DHT22;8828;48.800;9.540;2022-11-20T00:05:51;8.10;99.90
17421;DHT22;8828;48.800;9.540;2022-11-20T00:08:19;8.10;99.90
17421;DHT22;8828;48.800;9.540;2022-11-20T00:10:47;8.10;99.90
17421;DHT22;8828;48.800;9.540;2022-11-20T00:13:15;8.00;99.90
17421;DHT22;8828;48.800;9.540;2022-11-20T00:15:44;8.00;99.90
17421;DHT22;8828;48.800;9.540;2022-11-20T00:18:12;7.90;99.90
17421;DHT22;8828;48.800;9.540;2022-11-20T00:20:40;7.90;99.90
17421;DHT22;8828;48.800;9.540;2022-11-20T00:23:08;7.90;99.90
17421;DHT22;8828;48.800;9.540;2022-11-20T00:25:36;7.90;99.90
17421;DHT22;8828;48.800;9.540;2022-11-20T00:28:04;7.80;99.90
17421;DHT22;8828;48.800;9.540;2022-11-20T00:30:32;7.80;99.90
17421;DHT22;8828;48.800;9.540;2022-11-20T00:33:01;7.70;99.90
17421;DHT22;8828;48.800;9.540;2022-11-20T00:35:29;7.70;99.90
17421;DHT22;8828;48.800;9.540;2022-11-20T00:37:57;7.70;99.90
17421;DHT22;8828;48.800;9.540;2022-11-20T00:40:25;7.60;99.90
17421;DHT22;8828;48.800;9.540;2022-11-20T00:42:53;7.60;99.90
17421;DHT22;8828;48.800;9.540;2022-11-20T00:45:21;7.60;99.90
17421;DHT22;8828;48.800;9.540;2022-11-20T00:47:49;7.60;99.90
17421;DHT22;8828;48.800;9.540;2022-11-20T00:50:18;7.50;99.90
17421;DHT22;8828;48.800;9.540;2022-11-20T00:52:46;7.50;99.90
17421;DHT22;8828;48.800;9.540;2022-11-20T00:55:14;7.50;99.90
17421;DHT22;8828;48.800;9.540;2022-11-20T00:57:41;7.60;99.90
17421;DHT22;8828;48.800;9.540;2022-11-20T01:00:10;7.60;99.90
17421;DHT22;8828;48.800;9.540;2022-11-20T01:02:38;7.60;99.90
17421;DHT22;8828;48.800;9.540;2022-11-20T01:05:06;7.70;99.90
17421;DHT22;8828;48.800;9.540;2022-11-20T01:07:36;7.70;99.90
17421;DHT22;8828;48.800;9.540;2022-11-20T01:10:05;7.70;99.90
17421;DHT22;8828;48.800;9.540;2022-11-20T01:12:33;7.70;99.90
17421;DHT22;8828;48.800;9.540;2022-11-20T01:15:01;7.80;99.90
17421;DHT22;8828;48.800;9.540;2022-11-20T01:17:31;7.80;99.90
17421;DHT22;8828;48.800;9.540;2022-11-20T01:19:59;7.80;99.90
17421;DHT22;8828;48.800;9.540;2022-11-20T01:22:27;7.80;99.90
17421;DHT22;8828;48.800;9.540;2022-11-20T01:24:56;7.80;99.90
17421;DHT22;8828;48.800;9.540;2022-11-20T01:27:24;7.90;99.90
17421;DHT22;8828;48.800;9.540;2022-11-20T01:29:52;7.80;99.90
17421;DHT22;8828;48.800;9.540;2022-11-20T01:32:26;7.90;99.90
17421;DHT22;8828;48.800;9.540;2022-11-20T01:34:54;7.90;99.90
17421;DHT22;8828;48.800;9.540;2022-11-20T01:37:22;7.90;99.90
17421;DHT22;8828;48.800;9.540;2022-11-20T01:39:50;7.90;99.90
17421;DHT22;8828;48.800;9.540;2022-11-20T01:42:19;7.90;99.90
17421;DHT22;8828;48.800;9.540;2022-11-20T01:48:18;7.90;99.90
17421;DHT22;8828;48.800;9.540;2022-11-20T01:50:46;7.90;99.90
17421;DHT22;8828;48.800;9.540;2022-11-20T01:53:16;7.90;99.90
17421;DHT22;8828;48.800;9.540;2022-11-20T01:55:49;7.90;99.90
17421;DHT22;8828;48.800;9.540;2022-11-20T01:58:21;7.90;99.90
17421;DHT22;8828;48.800;9.540;2022-11-20T02:00:50;7.90;99.90
17421;DHT22;8828;48.800;9.540;2022-11-20T02:03:19;7.90;99.90
17421;DHT22;8828;48.800;9.540;2022-11-20T02:05:51;7.90;99.90
17421;DHT22;8828;48.800;9.540;2022-11-20T02:08:21;7.90;99.90
17421;DHT22;8828;48.800;9.540;2022-11-20T02:10:50;7.90;99.90
17421;DHT22;8828;48.800;9.540;2022-11-20T02:13:20;7.90;99.90
17421;DHT22;8828;48.800;9.540;2022-11-20T02:16:10;7.90;99.90
17421;DHT22;8828;48.800;9.540;2022-11-20T02:18:39;7.90;99.90
17421;DHT22;8828;48.800;9.540;2022-11-20T02:21:13;7.90;99.90
17421;DHT22;8828;48.800;9.540;2022-11-20T02:26:44;7.90;99.90
17421;DHT22;8828;48.800;9.540;2022-11-20T02:29:16;7.90;99.90
17421;DHT22;8828;48.800;9.540;2022-11-20T02:31:46;7.80;99.90
17421;DHT22;8828;48.800;9.540;2022-11-20T02:34:14;7.80;99.90
17421;DHT22;8828;48.800;9.540;2022-11-20T02:36:42;7.70;99.90
17421;DHT22;8828;48.800;9.540;2022-11-20T02:39:13;7.70;99.90
17421;DHT22;8828;48.800;9.540;2022-11-20T02:41:43;7.70;99.90
17421;DHT22;8828;48.800;9.540;2022-11-20T02:44:12;7.70;99.90
17421;DHT22;8828;48.800;9.540;2022-11-20T02:46:39;7.70;99.90
17421;DHT22;8828;48.800;9.540;2022-11-20T02:49:07;7.70;99.90
17421;DHT22;8828;48.800;9.540;2022-11-20T02:51:36;7.70;99.90
17421;DHT22;8828;48.800;9.540;2022-11-20T02:54:04;7.70;99.90
17421;DHT22;8828;48.800;9.540;2022-11-20T02:56:33;7.70;99.90
17421;DHT22;8828;48.800;9.540;2022-11-20T02:59:01;7.70;99.90
17421;DHT22;8828;48.800;9.540;2022-11-20T03:01:29;7.70;99.90
17421;DHT22;8828;48.800;9.540;2022-11-20T03:03:57;7.70;99.90
17421;DHT22;8828;48.800;9.540;2022-11-20T03:06:25;7.70;99.90
17421;DHT22;8828;48.800;9.540;2022-11-20T03:08:53;7.70;99.90
17421;DHT22;8828;48.800;9.540;2022-11-20T03:11:21;7.70;99.90
17421;DHT22;8828;48.800;9.540;2022-11-20T03:13:50;7.70;99.90
17421;DHT22;8828;48.800;9.540;2022-11-20T03:16:20;7.80;99.90
17421;DHT22;8828;48.800;9.540;2022-11-20T03:18:49;7.80;99.90
17421;DHT22;8828;48.800;9.540;2022-11-20T03:21:17;7.80;99.90
17421;DHT22;8828;48.800;9.540;2022-11-20T03:23:45;7.80;99.90
17421;DHT22;8828;48.800;9.540;2022-11-20T03:26:15;7.80;99.90
17421;DHT22;8828;48.800;9.540;2022-11-20T03:28:50;7.80;99.90
17421;DHT22;8828;48.800;9.540;2022-11-20T03:31:19;7.80;99.90
17421;DHT22;8828;48.800;9.540;2022-11-20T03:33:48;7.80;99.90
17421;DHT22;8828;48.800;9.540;2022-11-20T03:36:17;7.80;99.90
17421;DHT22;8828;48.800;9.540;2022-11-20T03:38:45;7.80;99.90
17421;DHT22;8828;48.800;9.540;2022-11-20T03:41:16;7.80;99.90
17421;DHT22;8828;48.800;9.540;2022-11-20T03:43:47;7.70;99.90
17421;DHT22;8828;48.800;9.540;2022-11-20T03:46:17;7.80;99.90
17421;DHT22;8828;48.800;9.540;2022-11-20T03:48:46;7.80;99.90
17421;DHT22;8828;48.800;9.540;2022-11-20T03:51:19;7.80;99.90
17421;DHT22;8828;48.800;9.540;2022-11-20T03:53:48;7.80;99.90
17421;DHT22;8828;48.800;9.540;2022-11-20T03:56:18;7.80;99.90
17421;DHT22;8828;48.800;9.540;2022-11-20T03:58:46;7.80;99.90
17421;DHT22;8828;48.800;9.540;2022-11-20T04:01:18;7.80;99.90
17421;DHT22;8828;48.800;9.540;2022-11-20T04:03:48;7.80;99.90
17421;DHT22;8828;48.800;9.540;2022-11-20T04:06:19;7.80;99.90
17421;DHT22;8828;48.800;9.540;2022-11-20T04:08:48;7.80;99.90
17421;DHT22;8828;48.800;9.540;2022-11-20T04:11:21;7.80;99.90
17421;DHT22;8828;48.800;9.540;2022-11-20T04:13:50;7.80;99.90
17421;DHT22;8828;48.800;9.540;2022-11-20T04:16:20;7.80;99.90
17421;DHT22;8828;48.800;9.540;2022-11-20T04:18:52;7.80;99.90
17421;DHT22;8828;48.800;9.540;2022-11-20T04:21:20;7.80;99.90
17421;DHT22;8828;48.800;9.540;2022-11-20T04:23:49;7.80;99.90
17421;DHT22;8828;48.800;9.540;2022-11-20T04:26:16;7.80;99.90
17421;DHT22;8828;48.800;9.540;2022-11-20T04:28:44;7.80;99.90
17421;DHT22;8828;48.800;9.540;2022-11-20T04:31:14;7.80;99.90
17421;DHT22;8828;48.800;9.540;2022-11-20T04:33:43;7.80;99.90
17421;DHT22;8828;48.800;9.540;2022-11-20T04:36:13;7.80;99.90
17421;DHT22;8828;48.800;9.540;2022-11-20T04:38:42;7.80;99.90
17421;DHT22;8828;48.800;9.540;2022-11-20T04:41:15;7.80;99.90
17421;DHT22;8828;48.800;9.540;2022-11-20T04:43:46;7.80;99.90
17421;DHT22;8828;48.800;9.540;2022-11-20T04:46:15;7.80;99.90
17421;DHT22;8828;48.800;9.540;2022-11-20T04:48:45;7.80;99.90
17421;DHT22;8828;48.800;9.540;2022-11-20T04:51:13;7.80;99.90
17421;DHT22;8828;48.800;9.540;2022-11-20T04:53:41;7.80;99.90
17421;DHT22;8828;48.800;9.540;2022-11-20T04:56:11;7.80;99.90
17421;DHT22;8828;48.800;9.540;2022-11-20T04:58:39;7.80;99.90
17421;DHT22;8828;48.800;9.540;2022-11-20T05:01:10;7.80;99.90
17421;DHT22;8828;48.800;9.540;2022-11-20T05:03:39;7.80;99.90
17421;DHT22;8828;48.800;9.540;2022-11-20T05:06:11;7.80;99.90
17421;DHT22;8828;48.800;9.540;2022-11-20T05:08:39;7.80;99.90
17421;DHT22;8828;48.800;9.540;2022-11-20T05:11:09;7.80;99.90
17421;DHT22;8828;48.800;9.540;2022-11-20T05:13:38;7.80;99.90
17421;DHT22;8828;48.800;9.540;2022-11-20T05:16:08;7.80;99.90
17421;DHT22;8828;48.800;9.540;2022-11-20T05:18:36;7.80;99.90
17421;DHT22;8828;48.800;9.540;2022-11-20T05:21:05;7.80;99.90
17421;DHT22;8828;48.800;9.540;2022-11-20T05:23:35;7.80;99.90
17421;DHT22;8828;48.800;9.540;2022-11-20T05:26:03;7.80;99.90
17421;DHT22;8828;48.800;9.540;2022-11-20T05:28:32;7.80;99.90
17421;DHT22;8828;48.800;9.540;2022-11-20T05:31:08;7.80;99.90
17421;DHT22;8828;48.800;9.540;2022-11-20T05:33:36;7.80;99.90
17421;DHT22;8828;48.800;9.540;2022-11-20T05:36:04;7.90;99.90
17421;DHT22;8828;48.800;9.540;2022-11-20T05:38:33;7.90;99.90
17421;DHT22;8828;48.800;9.540;2022-11-20T05:41:07;7.90;99.90
17421;DHT22;8828;48.800;9.540;2022-11-20T05:43:36;7.90;99.90
17421;DHT22;8828;48.800;9.540;2022-11-20T05:46:06;7.90;99.90
17421;DHT22;8828;48.800;9.540;2022-11-20T05:48:35;7.90;99.90
17421;DHT22;8828;48.800;9.540;2022-11-20T05:51:05;7.90;99.90
17421;DHT22;8828;48.800;9.540;2022-11-20T05:53:34;7.90;99.90
17421;DHT22;8828;48.800;9.540;2022-11-20T05:56:03;7.90;99.90
17421;DHT22;8828;48.800;9.540;2022-11-20T05:58:33;7.90;99.90
17421;DHT22;8828;48.800;9.540;2022-11-20T06:01:06;7.90;99.90
17421;DHT22;8828;48.800;9.540;2022-11-20T06:03:34;7.90;99.90
17421;DHT22;8828;48.800;9.540;2022-11-20T06:06:02;7.90;99.90
17421;DHT22;8828;48.800;9.540;2022-11-20T06:08:31;7.90;99.90
17421;DHT22;8828;48.800;9.540;2022-11-20T06:11:04;7.90;99.90
17421;DHT22;8828;48.800;9.540;2022-11-20T06:13:34;8.00;99.90
17421;DHT22;8828;48.800;9.540;2022-11-20T06:16:07;7.90;99.90
17421;DHT22;8828;48.800;9.540;2022-11-20T06:18:36;7.90;99.90
17421;DHT22;8828;48.800;9.540;2022-11-20T06:21:05;7.90;99.90
17421;DHT22;8828;48.800;9.540;2022-11-20T06:23:35;8.00;99.90
17421;DHT22;8828;48.800;9.540;2022-11-20T06:26:03;7.90;99.90
17421;DHT22;8828;48.800;9.540;2022-11-20T06:28:33;7.90;99.90
17421;DHT22;8828;48.800;9.540;2022-11-20T06:31:01;7.90;99.90
17421;DHT22;8828;48.800;9.540;2022-11-20T06:33:29;8.00;99.90
17421;DHT22;8828;48.800;9.540;2022-11-20T06:35:58;8.00;99.90
17421;DHT22;8828;48.800;9.540;2022-11-20T06:38:33;7.90;99.90
17421;DHT22;8828;48.800;9.540;2022-11-20T06:41:01;7.90;99.90
17421;DHT22;8828;48.800;9.540;2022-11-20T06:43:29;8.00;99.90
17421;DHT22;8828;48.800;9.540;2022-11-20T06:45:59;8.00;99.90
17421;DHT22;8828;48.800;9.540;2022-11-20T06:48:27;8.00;99.90
17421;DHT22;8828;48.800;9.540;2022-11-20T06:50:56;7.90;99.90
17421;DHT22;8828;48.800;9.540;2022-11-20T06:53:24;7.90;99.90
17421;DHT22;8828;48.800;9.540;2022-11-20T06:55:52;7.90;99.90
17421;DHT22;8828;48.800;9.540;2022-11-20T06:58:25;7.90;99.90
17421;DHT22;8828;48.800;9.540;2022-11-20T07:00:53;7.90;99.90
17421;DHT22;8828;48.800;9.540;2022-11-20T07:03:23;7.90;99.90
17421;DHT22;8828;48.800;9.540;2022-11-20T07:05:51;7.90;99.90
17421;DHT22;8828;48.800;9.540;2022-11-20T07:08:19;7.90;99.90
17421;DHT22;8828;48.800;9.540;2022-11-20T07:10:46;7.90;99.90
17421;DHT22;8828;48.800;9.540;2022-11-20T07:13:14;7.90;99.90
17421;DHT22;8828;48.800;9.540;2022-11-20T07:15:42;7.90;99.90
17421;DHT22;8828;48.800;9.540;2022-11-20T07:18:10;7.90;99.90
17421;DHT22;8828;48.800;9.540;2022-11-20T07:20:40;7.90;99.90
17421;DHT22;8828;48.800;9.540;2022-11-20T07:23:07;7.90;99.90
17421;DHT22;8828;48.800;9.540;2022-11-20T07:25:35;7.90;99.90
17421;DHT22;8828;48.800;9.540;2022-11-20T07:28:03;7.90;99.90
17421;DHT22;8828;48.800;9.540;2022-11-20T07:30:32;7.80;99.90
17421;DHT22;8828;48.800;9.540;2022-11-20T07:32:59;7.90;99.90
17421;DHT22;8828;48.800;9.540;2022-11-20T07:35:27;7.80;99.90
17421;DHT22;8828;48.800;9.540;2022-11-20T07:37:57;7.90;99.90
17421;DHT22;8828;48.800;9.540;2022-11-20T07:40:28;7.90;99.90
17421;DHT22;8828;48.800;9.540;2022-11-20T07:42:55;7.90;99.90
17421;DHT22;8828;48.800;9.540;2022-11-20T07:45:24;7.90;99.90
17421;DHT22;8828;48.800;9.540;2022-11-20T07:47:52;8.00;99.90
17421;DHT22;8828;48.800;9.540;2022-11-20T07:50:20;8.00;99.90
17421;DHT22;8828;48.800;9.540;2022-11-20T07:52:48;8.00;99.90
17421;DHT22;8828;48.800;9.540;2022-11-20T07:55:17;8.00;99.90
17421;DHT22;8828;48.800;9.540;2022-11-20T07:57:46;8.00;99.90
17421;DHT22;8828;48.800;9.540;2022-11-20T08:00:14;8.00;99.90
17421;DHT22;8828;48.800;9.540;2022-11-20T08:02:43;8.00;99.90
17421;DHT22;8828;48.800;9.540;2022-11-20T08:05:11;8.00;99.90
17421;DHT22;8828;48.800;9.540;2022-11-20T08:07:40;8.00;99.90
17421;DHT22;8828;48.800;9.540;2022-11-20T08:10:10;8.00;99.90
17421;DHT22;8828;48.800;9.540;2022-11-20T08:12:45;8.10;99.90
17421;DHT22;8828;48.800;9.540;2022-11-20T08:15:31;8.10;99.90
17421;DHT22;8828;48.800;9.540;2022-11-20T08:18:01;8.10;99.90
17421;DHT22;8828;48.800;9.540;2022-11-20T08:20:49;8.10;99.90
17421;DHT22;8828;48.800;9.540;2022-11-20T08:23:16;8.10;99.90
17421;DHT22;8828;48.800;9.540;2022-11-20T08:25:49;8.10;99.90
17421;DHT22;8828;48.800;9.540;2022-11-20T08:28:19;8.20;99.90
17421;DHT22;8828;48.800;9.540;2022-11-20T08:30:49;8.10;99.90
17421;DHT22;8828;48.800;9.540;2022-11-20T08:33:17;8.10;99.90
17421;DHT22;8828;48.800;9.540;2022-11-20T08:35:46;8.10;99.90
17421;DHT22;8828;48.800;9.540;2022-11-20T08:38:14;8.10;99.90
17421;DHT22;8828;48.800;9.540;2022-11-20T08:40:41;8.10;99.90
17421;DHT22;8828;48.800;9.540;2022-11-20T08:43:32;8.10;99.90
17421;DHT22;8828;48.800;9.540;2022-11-20T08:46:00;8.10;99.90
17421;DHT22;8828;48.800;9.540;2022-11-20T08:48:28;8.20;99.90
17421;DHT22;8828;48.800;9.540;2022-11-20T08:50:58;8.20;99.90
17421;DHT22;8828;48.800;9.540;2022-11-20T08:53:26;8.20;99.90
17421;DHT22;8828;48.800;9.540;2022-11-20T08:55:54;8.30;99.90
17421;DHT22;8828;48.800;9.540;2022-11-20T08:58:24;8.40;99.90
17421;DHT22;8828;48.800;9.540;2022-11-20T09:00:53;8.50;99.90
17421;DHT22;8828;48.800;9.540;2022-11-20T09:03:21;8.50;99.90
17421;DHT22;8828;48.800;9.540;2022-11-20T09:05:57;8.60;99.90
17421;DHT22;8828;48.800;9.540;2022-11-20T09:08:27;8.70;99.90
17421;DHT22;8828;48.800;9.540;2022-11-20T09:10:56;8.70;99.90
17421;DHT22;8828;48.800;9.540;2022-11-20T09:13:25;8.70;99.90
17421;DHT22;8828;48.800;9.540;2022-11-20T09:15:55;8.80;99.90
17421;DHT22;8828;48.800;9.540;2022-11-20T09:18:25;8.80;99.90
17421;DHT22;8828;48.800;9.540;2022-11-20T09:20:56;8.80;99.90
17421;DHT22;8828;48.800;9.540;2022-11-20T09:23:24;8.90;99.90
17421;DHT22;8828;48.800;9.540;2022-11-20T09:25:52;9.00;99.90
17421;DHT22;8828;48.800;9.540;2022-11-20T09:28:22;9.10;99.90
17421;DHT22;8828;48.800;9.540;2022-11-20T09:30:49;9.10;99.90
17421;DHT22;8828;48.800;9.540;2022-11-20T09:33:19;9.10;99.90
17421;DHT22;8828;48.800;9.540;2022-11-20T09:35:47;9.10;99.90
17421;DHT22;8828;48.800;9.540;2022-11-20T09:38:15;9.10;99.90
17421;DHT22;8828;48.800;9.540;2022-11-20T09:40:47;9.10;99.90
17421;DHT22;8828;48.800;9.540;2022-11-20T09:43:19;9.00;99.90
17421;DHT22;8828;48.800;9.540;2022-11-20T09:45:59;9.00;99.90
17421;DHT22;8828;48.800;9.540;2022-11-20T09:48:42;8.90;99.90
17421;DHT22;8828;48.800;9.540;2022-11-20T09:51:17;8.80;99.90
17421;DHT22;8828;48.800;9.540;2022-11-20T09:54:00;8.80;99.90
17421;DHT22;8828;48.800;9.540;2022-11-20T09:56:30;8.80;99.90
17421;DHT22;8828;48.800;9.540;2022-11-20T09:59:05;8.70;99.90
17421;DHT22;8828;48.800;9.540;2022-11-20T10:01:35;8.70;99.90
17421;DHT22;8828;48.800;9.540;2022-11-20T10:04:12;8.70;99.90
17421;DHT22;8828;48.800;9.540;2022-11-20T10:06:54;8.60;99.90
17421;DHT22;8828;48.800;9.540;2022-11-20T10:09:50;8.60;99.90
17421;DHT22;8828;48.800;9.540;2022-11-20T10:12:23;8.60;99.90
17421;DHT22;8828;48.800;9.540;2022-11-20T10:15:03;8.60;99.90
17421;DHT22;8828;48.800;9.540;2022-11-20T10:20:46;8.60;99.90
17421;DHT22;8828;48.800;9.540;2022-11-20T10:26:17;8.60;99.90
17421;DHT22;8828;48.800;9.540;2022-11-20T10:29:01;8.70;99.90
17421;DHT22;8828;48.800;9.540;2022-11-20T10:31:36;8.70;99.90
17421;DHT22;8828;48.800;9.540;2022-11-20T10:34:07;8.60;99.90
17421;DHT22;8828;48.800;9.540;2022-11-20T10:36:51;8.60;99.90
17421;DHT22;8828;48.800;9.540;2022-11-20T10:39:26;8.60;99.90
17421;DHT22;8828;48.800;9.540;2022-11-20T10:41:57;8.60;99.90
17421;DHT22;8828;48.800;9.540;2022-11-20T10:44:27;8.60;99.90
17421;DHT22;8828;48.800;9.540;2022-11-20T10:47:15;8.60;99.90
17421;DHT22;8828;48.800;9.540;2022-11-20T10:49:46;8.60;99.90
17421;DHT22;8828;48.800;9.540;2022-11-20T10:52:24;8.60;99.90
17421;DHT22;8828;48.800;9.540;2022-11-20T10:55:06;8.60;99.90
17421;DHT22;8828;48.800;9.540;2022-11-20T10:57:50;8.60;99.90
17421;DHT22;8828;48.800;9.540;2022-11-20T11:00:19;8.60;99.90
17421;DHT22;8828;48.800;9.540;2022-11-20T11:02:48;8.60;99.90
17421;DHT22;8828;48.800;9.540;2022-11-20T11:05:24;8.60;99.90
17421;DHT22;8828;48.800;9.540;2022-11-20T11:07:56;8.60;99.90
17421;DHT22;8828;48.800;9.540;2022-11-20T11:10:31;8.60;99.90
17421;DHT22;8828;48.800;9.540;2022-11-20T11:13:00;8.60;99.90
17421;DHT22;8828;48.800;9.540;2022-11-20T11:15:29;8.60;99.90
17421;DHT22;8828;48.800;9.540;2022-11-20T11:17:57;8.60;99.90
17421;DHT22;8828;48.800;9.540;2022-11-20T11:20:26;8.60;99.90
17421;DHT22;8828;48.800;9.540;2022-11-20T11:22:57;8.50;99.90
17421;DHT22;8828;48.800;9.540;2022-11-20T11:25:28;8.50;99.90
17421;DHT22;8828;48.800;9.540;2022-11-20T11:27:59;8.50;99.90
17421;DHT22;8828;48.800;9.540;2022-11-20T11:30:28;8.50;99.90
17421;DHT22;8828;48.800;9.540;2022-11-20T11:33:06;8.50;99.90
17421;DHT22;8828;48.800;9.540;2022-11-20T11:35:44;8.50;99.90
17421;DHT22;8828;48.800;9.540;2022-11-20T11:38:21;8.50;99.90
17421;DHT22;8828;48.800;9.540;2022-11-20T11:40:50;8.40;99.90
17421;DHT22;8828;48.800;9.540;2022-11-20T11:43:23;8.40;99.90
17421;DHT22;8828;48.800;9.540;2022-11-20T11:46:26;8.40;99.90
17421;DHT22;8828;48.800;9.540;2022-11-20T11:48:57;8.40;99.90
17421;DHT22;8828;48.800;9.540;2022-11-20T11:51:30;8.40;99.90
17421;DHT22;8828;48.800;9.540;2022-11-20T11:54:01;8.40;99.90
17421;DHT22;8828;48.800;9.540;2022-11-20T11:56:33;8.50;99.90
17421;DHT22;8828;48.800;9.540;2022-11-20T11:59:04;8.50;99.90
17421;DHT22;8828;48.800;9.540;2022-11-20T12:01:41;8.60;99.90
17421;DHT22;8828;48.800;9.540;2022-11-20T12:04:16;8.80;99.90
17421;DHT22;8828;48.800;9.540;2022-11-20T12:06:47;10.10;99.90
17421;DHT22;8828;48.800;9.540;2022-11-20T12:09:20;12.10;99.90
17421;DHT22;8828;48.800;9.540;2022-11-20T12:11:55;12.90;99.90
17421;DHT22;8828;48.800;9.540;2022-11-20T12:14:31;12.90;99.90
17421;DHT22;8828;48.800;9.540;2022-11-20T12:17:01;12.60;99.90
17421;DHT22;8828;48.800;9.540;2022-11-20T12:19:30;12.60;99.90
17421;DHT22;8828;48.800;9.540;2022-11-20T12:22:04;12.60;99.90
17421;DHT22;8828;48.800;9.540;2022-11-20T12:24:44;12.50;99.90
17421;DHT22;8828;48.800;9.540;2022-11-20T12:27:38;12.30;99.90
17421;DHT22;8828;48.800;9.540;2022-11-20T12:30:10;12.30;99.90
17421;DHT22;8828;48.800;9.540;2022-11-20T12:33:04;12.40;99.90
17421;DHT22;8828;48.800;9.540;2022-11-20T12:36:09;12.60;99.90
17421;DHT22;8828;48.800;9.540;2022-11-20T12:38:55;13.30;99.90
17421;DHT22;8828;48.800;9.540;2022-11-20T12:44:54;13.10;99.90
17421;DHT22;8828;48.800;9.540;2022-11-20T12:47:54;12.60;99.90
17421;DHT22;8828;48.800;9.540;2022-11-20T12:50:31;12.00;99.90
17421;DHT22;8828;48.800;9.540;2022-11-20T12:53:29;11.60;99.90
17421;DHT22;8828;48.800;9.540;2022-11-20T12:56:05;11.50;99.90
17421;DHT22;8828;48.800;9.540;2022-11-20T12:58:51;11.60;99.90
17421;DHT22;8828;48.800;9.540;2022-11-20T13:01:30;12.00;99.90
17421;DHT22;8828;48.800;9.540;2022-11-20T13:04:23;12.30;99.90
17421;DHT22;8828;48.800;9.540;2022-11-20T13:06:54;12.50;99.90
17421;DHT22;8828;48.800;9.540;2022-11-20T13:09:23;12.40;99.90
17421;DHT22;8828;48.800;9.540;2022-11-20T13:11:58;12.20;99.90
17421;DHT22;8828;48.800;9.540;2022-11-20T13:14:35;12.00;99.90
17421;DHT22;8828;48.800;9.540;2022-11-20T13:17:09;11.90;99.90
17421;DHT22;8828;48.800;9.540;2022-11-20T13:19:39;11.70;99.90
17421;DHT22;8828;48.800;9.540;2022-11-20T13:22:08;11.50;99.90
17421;DHT22;8828;48.800;9.540;2022-11-20T13:24:36;11.30;99.90
17421;DHT22;8828;48.800;9.540;2022-11-20T13:27:20;11.30;99.90
17421;DHT22;8828;48.800;9.540;2022-11-20T13:30:13;11.30;99.90
17421;DHT22;8828;48.800;9.540;2022-11-20T13:32:51;11.20;99.90
17421;DHT22;8828;48.800;9.540;2022-11-20T13:35:29;11.30;99.90
17421;DHT22;8828;48.800;9.540;2022-11-20T13:38:04;11.30;99.90
17421;DHT22;8828;48.800;9.540;2022-11-20T13:40:33;11.40;99.90
17421;DHT22;8828;48.800;9.540;2022-11-20T13:43:10;11.30;99.90
17421;DHT22;8828;48.800;9.540;2022-11-20T13:45:40;11.20;99.90
17421;DHT22;8828;48.800;9.540;2022-11-20T13:48:20;11.20;99.90
17421;DHT22;8828;48.800;9.540;2022-11-20T13:50:56;11.10;99.90
17421;DHT22;8828;48.800;9.540;2022-11-20T13:53:45;11.00;99.90
17421;DHT22;8828;48.800;9.540;2022-11-20T13:56:22;10.90;99.90
17421;DHT22;8828;48.800;9.540;2022-11-20T13:58:59;10.80;99.90
17421;DHT22;8828;48.800;9.540;2022-11-20T14:01:34;10.70;99.90
17421;DHT22;8828;48.800;9.540;2022-11-20T14:04:06;10.50;99.90
17421;DHT22;8828;48.800;9.540;2022-11-20T14:06:41;10.50;99.90
17421;DHT22;8828;48.800;9.540;2022-11-20T14:09:11;10.50;99.90
17421;DHT22;8828;48.800;9.540;2022-11-20T14:11:46;10.50;99.90
17421;DHT22;8828;48.800;9.540;2022-11-20T14:14:18;10.40;99.90
17421;DHT22;8828;48.800;9.540;2022-11-20T14:16:49;10.40;99.90
17421;DHT22;8828;48.800;9.540;2022-11-20T14:19:26;10.30;99.90
17421;DHT22;8828;48.800;9.540;2022-11-20T14:22:08;10.20;99.90
17421;DHT22;8828;48.800;9.540;2022-11-20T14:24:36;10.20;99.90
17421;DHT22;8828;48.800;9.540;2022-11-20T14:27:04;10.10;99.90
17421;DHT22;8828;48.800;9.540;2022-11-20T14:29:35;10.10;99.90
17421;DHT22;8828;48.800;9.540;2022-11-20T14:32:05;10.10;99.90
17421;DHT22;8828;48.800;9.540;2022-11-20T14:34:38;10.10;99.90
17421;DHT22;8828;48.800;9.540;2022-11-20T14:37:11;10.10;99.90
17421;DHT22;8828;48.800;9.540;2022-11-20T14:39:48;10.10;99.90
17421;DHT22;8828;48.800;9.540;2022-11-20T14:42:18;10.10;99.90
17421;DHT22;8828;48.800;9.540;2022-11-20T14:44:48;10.00;99.90
17421;DHT22;8828;48.800;9.540;2022-11-20T14:47:20;10.00;99.90
17421;DHT22;8828;48.800;9.540;2022-11-20T14:49:49;10.00;99.90
17421;DHT22;8828;48.800;9.540;2022-11-20T14:52:19;9.90;99.90
17421;DHT22;8828;48.800;9.540;2022-11-20T14:54:49;9.90;99.90
17421;DHT22;8828;48.800;9.540;2022-11-20T14:57:23;9.80;99.90
17421;DHT22;8828;48.800;9.540;2022-11-20T15:00:03;9.80;99.90
17421;DHT22;8828;48.800;9.540;2022-11-20T15:02:33;9.70;99.90
17421;DHT22;8828;48.800;9.540;2022-11-20T15:05:02;9.60;99.90
17421;DHT22;8828;48.800;9.540;2022-11-20T15:07:32;9.50;99.90
17421;DHT22;8828;48.800;9.540;2022-11-20T15:10:04;9.50;99.90
17421;DHT22;8828;48.800;9.540;2022-11-20T15:12:34;9.50;99.90
17421;DHT22;8828;48.800;9.540;2022-11-20T15:15:04;9.40;99.90
17421;DHT22;8828;48.800;9.540;2022-11-20T15:17:37;9.40;99.90
17421;DHT22;8828;48.800;9.540;2022-11-20T15:20:11;9.30;99.90
17421;DHT22;8828;48.800;9.540;2022-11-20T15:22:40;9.30;99.90
17421;DHT22;8828;48.800;9.540;2022-11-20T15:25:12;9.20;99.90
17421;DHT22;8828;48.800;9.540;2022-11-20T15:27:41;9.10;99.90
17421;DHT22;8828;48.800;9.540;2022-11-20T15:30:13;9.10;99.90
17421;DHT22;8828;48.800;9.540;2022-11-20T15:32:44;9.10;99.90
17421;DHT22;8828;48.800;9.540;2022-11-20T15:35:14;9.00;99.90
17421;DHT22;8828;48.800;9.540;2022-11-20T15:37:42;8.90;99.90
17421;DHT22;8828;48.800;9.540;2022-11-20T15:40:11;8.90;99.90
17421;DHT22;8828;48.800;9.540;2022-11-20T15:42:39;8.90;99.90
17421;DHT22;8828;48.800;9.540;2022-11-20T15:45:29;8.90;99.90
17421;DHT22;8828;48.800;9.540;2022-11-20T15:47:59;8.90;99.90
17421;DHT22;8828;48.800;9.540;2022-11-20T15:50:33;8.90;99.90
17421;DHT22;8828;48.800;9.540;2022-11-20T15:53:02;8.80;99.90
17421;DHT22;8828;48.800;9.540;2022-11-20T15:55:30;8.80;99.90
17421;DHT22;8828;48.800;9.540;2022-11-20T15:57:58;8.80;99.90
17421;DHT22;8828;48.800;9.540;2022-11-20T16:00:28;8.70;99.90
17421;DHT22;8828;48.800;9.540;2022-11-20T16:02:56;8.70;99.90
17421;DHT22;8828;48.800;9.540;2022-11-20T16:05:27;8.60;99.90
17421;DHT22;8828;48.800;9.540;2022-11-20T16:07:56;8.60;99.90
17421;DHT22;8828;48.800;9.540;2022-11-20T16:10:24;8.60;99.90
17421;DHT22;8828;48.800;9.540;2022-11-20T16:12:52;8.60;99.90
17421;DHT22;8828;48.800;9.540;2022-11-20T16:15:37;8.50;99.90
17421;DHT22;8828;48.800;9.540;2022-11-20T16:18:16;8.50;99.90
17421;DHT22;8828;48.800;9.540;2022-11-20T16:20:48;8.40;99.90
17421;DHT22;8828;48.800;9.540;2022-11-20T16:23:17;8.40;99.90
17421;DHT22;8828;48.800;9.540;2022-11-20T16:25:45;8.40;99.90
17421;DHT22;8828;48.800;9.540;2022-11-20T16:28:13;8.40;99.90
17421;DHT22;8828;48.800;9.540;2022-11-20T16:30:45;8.40;99.90
17421;DHT22;8828;48.800;9.540;2022-11-20T16:33:15;8.30;99.90
17421;DHT22;8828;48.800;9.540;2022-11-20T16:35:43;8.30;99.90
17421;DHT22;8828;48.800;9.540;2022-11-20T16:38:13;8.30;99.90
17421;DHT22;8828;48.800;9.540;2022-11-20T16:40:41;8.30;99.90
17421;DHT22;8828;48.800;9.540;2022-11-20T16:43:10;8.30;99.90